sensor_id;sensor_type;location;lat;lon;timestamp;pressure;altitude;pressure_sealevel;temperature
9119;BMP180;4594;50.994;7.126;2023-06-22T00:02:17;100833.00;;;27.60
9119;BMP180;4594;50.994;7.126;2023-06-22T00:04:43;100838.00;;;27.60
9119;BMP180;4594;50.994;7.126;2023-06-22T00:07:09;100845.00;;;27.60
9119;BMP180;4594;50.994;7.126;2023-06-22T00:09:36;100851.00;;;27.60
9119;BMP180;4594;50.994;7.126;2023-06-22T00:12:02;100849.00;;;27.70
9119;BMP180;4594;50.994;7.126;2023-06-22T00:14:28;100837.00;;;27.70
9119;BMP180;4594;50.994;7.126;2023-06-22T00:16:54;100835.00;;;27.70
9119;BMP180;4594;50.994;7.126;2023-06-22T00:19:24;100855.00;;;27.70
9119;BMP180;4594;50.994;7.126;2023-06-22T00:21:51;100861.00;;;27.70
9119;BMP180;4594;50.994;7.126;2023-06-22T00:24:24;100854.00;;;27.70
9119;BMP180;4594;50.994;7.126;2023-06-22T00:26:49;100838.00;;;27.70
9119;BMP180;4594;50.994;7.126;2023-06-22T00:29:15;100850.00;;;27.70
9119;BMP180;4594;50.994;7.126;2023-06-22T00:31:42;100847.00;;;27.70
9119;BMP180;4594;50.994;7.126;2023-06-22T00:34:08;100849.00;;;27.70
9119;BMP180;4594;50.994;7.126;2023-06-22T00:36:35;100863.00;;;27.70
9119;BMP180;4594;50.994;7.126;2023-06-22T00:39:01;100871.00;;;27.70
9119;BMP180;4594;50.994;7.126;2023-06-22T00:41:27;100849.00;;;27.70
9119;BMP180;4594;50.994;7.126;2023-06-22T00:43:54;100862.00;;;27.70
9119;BMP180;4594;50.994;7.126;2023-06-22T00:46:21;100862.00;;;27.70
9119;BMP180;4594;50.994;7.126;2023-06-22T00:48:49;100848.00;;;27.70
9119;BMP180;4594;50.994;7.126;2023-06-22T00:51:15;100847.00;;;27.70
9119;BMP180;4594;50.994;7.126;2023-06-22T00:53:42;100855.00;;;27.70
9119;BMP180;4594;50.994;7.126;2023-06-22T00:56:09;100853.00;;;27.70
9119;BMP180;4594;50.994;7.126;2023-06-22T00:58:38;100852.00;;;27.70
9119;BMP180;4594;50.994;7.126;2023-06-22T01:01:07;100869.00;;;27.70
9119;BMP180;4594;50.994;7.126;2023-06-22T01:03:33;100868.00;;;27.70
9119;BMP180;4594;50.994;7.126;2023-06-22T01:06:08;100862.00;;;27.70
9119;BMP180;4594;50.994;7.126;2023-06-22T01:08:49;100860.00;;;27.70
9119;BMP180;4594;50.994;7.126;2023-06-22T01:11:28;100856.00;;;27.70
9119;BMP180;4594;50.994;7.126;2023-06-22T01:14:06;100845.00;;;27.70
9119;BMP180;4594;50.994;7.126;2023-06-22T01:16:40;100852.00;;;27.70
9119;BMP180;4594;50.994;7.126;2023-06-22T01:19:29;100856.00;;;27.70
9119;BMP180;4594;50.994;7.126;2023-06-22T01:22:02;100851.00;;;27.70
9119;BMP180;4594;50.994;7.126;2023-06-22T01:24:45;100855.00;;;27.70
9119;BMP180;4594;50.994;7.126;2023-06-22T01:27:47;100843.00;;;27.70
9119;BMP180;4594;50.994;7.126;2023-06-22T01:30:18;100827.00;;;27.60
9119;BMP180;4594;50.994;7.126;2023-06-22T01:32:45;100826.00;;;27.60
9119;BMP180;4594;50.994;7.126;2023-06-22T01:35:13;100816.00;;;27.60
9119;BMP180;4594;50.994;7.126;2023-06-22T01:37:39;100826.00;;;27.60
9119;BMP180;4594;50.994;7.126;2023-06-22T01:40:08;100809.00;;;27.60
9119;BMP180;4594;50.994;7.126;2023-06-22T01:42:35;100812.00;;;27.60
9119;BMP180;4594;50.994;7.126;2023-06-22T01:45:01;100816.00;;;27.60
9119;BMP180;4594;50.994;7.126;2023-06-22T01:47:27;100811.00;;;27.60
9119;BMP180;4594;50.994;7.126;2023-06-22T01:49:54;100809.00;;;27.60
9119;BMP180;4594;50.994;7.126;2023-06-22T01:52:20;100798.00;;;27.60
9119;BMP180;4594;50.994;7.126;2023-06-22T01:54:47;100813.00;;;27.50
9119;BMP180;4594;50.994;7.126;2023-06-22T01:57:13;100808.00;;;27.50
9119;BMP180;4594;50.994;7.126;2023-06-22T02:02:14;100785.00;;;27.50
9119;BMP180;4594;50.994;7.126;2023-06-22T02:04:57;100797.00;;;27.50
9119;BMP180;4594;50.994;7.126;2023-06-22T02:07:31;100793.00;;;27.50
9119;BMP180;4594;50.994;7.126;2023-06-22T02:09:59;100801.00;;;27.50
9119;BMP180;4594;50.994;7.126;2023-06-22T02:12:29;100784.00;;;27.50
9119;BMP180;4594;50.994;7.126;2023-06-22T02:14:57;100787.00;;;27.50
9119;BMP180;4594;50.994;7.126;2023-06-22T02:17:25;100797.00;;;27.50
9119;BMP180;4594;50.994;7.126;2023-06-22T02:19:51;100790.00;;;27.50
9119;BMP180;4594;50.994;7.126;2023-06-22T02:22:16;100798.00;;;27.50
9119;BMP180;4594;50.994;7.126;2023-06-22T02:24:42;100799.00;;;27.50
9119;BMP180;4594;50.994;7.126;2023-06-22T02:27:08;100800.00;;;27.50
9119;BMP180;4594;50.994;7.126;2023-06-22T02:29:33;100792.00;;;27.50
9119;BMP180;4594;50.994;7.126;2023-06-22T02:31:59;100788.00;;;27.50
9119;BMP180;4594;50.994;7.126;2023-06-22T02:34:26;100800.00;;;27.50
9119;BMP180;4594;50.994;7.126;2023-06-22T02:36:51;100788.00;;;27.50
9119;BMP180;4594;50.994;7.126;2023-06-22T02:39:24;100786.00;;;27.50
9119;BMP180;4594;50.994;7.126;2023-06-22T02:41:52;100786.00;;;27.40
9119;BMP180;4594;50.994;7.126;2023-06-22T02:44:20;100783.00;;;27.50
9119;BMP180;4594;50.994;7.126;2023-06-22T02:46:47;100786.00;;;27.50
9119;BMP180;4594;50.994;7.126;2023-06-22T02:49:13;100767.00;;;27.50
9119;BMP180;4594;50.994;7.126;2023-06-22T02:51:44;100781.00;;;27.40
9119;BMP180;4594;50.994;7.126;2023-06-22T02:54:10;100776.00;;;27.40
9119;BMP180;4594;50.994;7.126;2023-06-22T02:56:36;100762.00;;;27.40
9119;BMP180;4594;50.994;7.126;2023-06-22T02:59:02;100762.00;;;27.40
9119;BMP180;4594;50.994;7.126;2023-06-22T03:01:28;100771.00;;;27.40
9119;BMP180;4594;50.994;7.126;2023-06-22T03:03:56;100773.00;;;27.40
9119;BMP180;4594;50.994;7.126;2023-06-22T03:06:22;100750.00;;;27.30
9119;BMP180;4594;50.994;7.126;2023-06-22T03:08:52;100755.00;;;27.30
9119;BMP180;4594;50.994;7.126;2023-06-22T03:11:17;100750.00;;;27.30
9119;BMP180;4594;50.994;7.126;2023-06-22T03:13:43;100758.00;;;27.30
9119;BMP180;4594;50.994;7.126;2023-06-22T03:16:09;100752.00;;;27.30
9119;BMP180;4594;50.994;7.126;2023-06-22T03:18:35;100743.00;;;27.20
9119;BMP180;4594;50.994;7.126;2023-06-22T03:21:01;100751.00;;;27.20
9119;BMP180;4594;50.994;7.126;2023-06-22T03:23:27;100754.00;;;27.20
9119;BMP180;4594;50.994;7.126;2023-06-22T03:25:53;100760.00;;;27.20
9119;BMP180;4594;50.994;7.126;2023-06-22T03:28:21;100770.00;;;27.20
9119;BMP180;4594;50.994;7.126;2023-06-22T03:30:47;100768.00;;;27.20
9119;BMP180;4594;50.994;7.126;2023-06-22T03:33:13;100761.00;;;27.20
9119;BMP180;4594;50.994;7.126;2023-06-22T03:35:38;100763.00;;;27.20
9119;BMP180;4594;50.994;7.126;2023-06-22T03:38:04;100759.00;;;27.20
9119;BMP180;4594;50.994;7.126;2023-06-22T03:40:30;100759.00;;;27.20
9119;BMP180;4594;50.994;7.126;2023-06-22T03:42:56;100748.00;;;27.20
9119;BMP180;4594;50.994;7.126;2023-06-22T03:45:21;100757.00;;;27.20
9119;BMP180;4594;50.994;7.126;2023-06-22T03:47:47;100758.00;;;27.20
9119;BMP180;4594;50.994;7.126;2023-06-22T03:50:13;100742.00;;;27.20
9119;BMP180;4594;50.994;7.126;2023-06-22T03:52:40;100751.00;;;27.20
9119;BMP180;4594;50.994;7.126;2023-06-22T03:55:07;100750.00;;;27.20
9119;BMP180;4594;50.994;7.126;2023-06-22T03:57:33;100754.00;;;27.20
9119;BMP180;4594;50.994;7.126;2023-06-22T03:59:59;100734.00;;;27.20
9119;BMP180;4594;50.994;7.126;2023-06-22T04:02:25;100750.00;;;27.20
9119;BMP180;4594;50.994;7.126;2023-06-22T04:04:51;100739.00;;;27.20
9119;BMP180;4594;50.994;7.126;2023-06-22T04:07:17;100730.00;;;27.20
9119;BMP180;4594;50.994;7.126;2023-06-22T04:09:43;100746.00;;;27.20
9119;BMP180;4594;50.994;7.126;2023-06-22T04:12:09;100744.00;;;27.10
9119;BMP180;4594;50.994;7.126;2023-06-22T04:14:35;100731.00;;;27.20
9119;BMP180;4594;50.994;7.126;2023-06-22T04:17:02;100722.00;;;27.20
9119;BMP180;4594;50.994;7.126;2023-06-22T04:19:27;100736.00;;;27.20
9119;BMP180;4594;50.994;7.126;2023-06-22T04:21:53;100748.00;;;27.20
9119;BMP180;4594;50.994;7.126;2023-06-22T04:24:18;100747.00;;;27.30
9119;BMP180;4594;50.994;7.126;2023-06-22T04:26:44;100740.00;;;27.30
9119;BMP180;4594;50.994;7.126;2023-06-22T04:29:13;100746.00;;;27.30
9119;BMP180;4594;50.994;7.126;2023-06-22T04:31:39;100736.00;;;27.40
9119;BMP180;4594;50.994;7.126;2023-06-22T04:34:06;100749.00;;;27.40
9119;BMP180;4594;50.994;7.126;2023-06-22T04:36:39;100736.00;;;27.40
9119;BMP180;4594;50.994;7.126;2023-06-22T04:39:10;100741.00;;;27.40
9119;BMP180;4594;50.994;7.126;2023-06-22T04:41:40;100737.00;;;27.40
9119;BMP180;4594;50.994;7.126;2023-06-22T04:44:19;100724.00;;;27.40
9119;BMP180;4594;50.994;7.126;2023-06-22T04:46:57;100733.00;;;27.40
9119;BMP180;4594;50.994;7.126;2023-06-22T04:49:28;100734.00;;;27.40
9119;BMP180;4594;50.994;7.126;2023-06-22T04:52:05;100737.00;;;27.40
9119;BMP180;4594;50.994;7.126;2023-06-22T04:54:32;100732.00;;;27.40
9119;BMP180;4594;50.994;7.126;2023-06-22T04:57:02;100732.00;;;27.40
9119;BMP180;4594;50.994;7.126;2023-06-22T04:59:30;100742.00;;;27.40
9119;BMP180;4594;50.994;7.126;2023-06-22T05:02:02;100735.00;;;27.40
9119;BMP180;4594;50.994;7.126;2023-06-22T05:04:29;100743.00;;;27.40
9119;BMP180;4594;50.994;7.126;2023-06-22T05:06:59;100723.00;;;27.40
9119;BMP180;4594;50.994;7.126;2023-06-22T05:09:26;100719.00;;;27.40
9119;BMP180;4594;50.994;7.126;2023-06-22T05:11:52;100726.00;;;27.30
9119;BMP180;4594;50.994;7.126;2023-06-22T05:14:18;100734.00;;;27.20
9119;BMP180;4594;50.994;7.126;2023-06-22T05:16:45;100727.00;;;27.10
9119;BMP180;4594;50.994;7.126;2023-06-22T05:19:11;100724.00;;;27.00
9119;BMP180;4594;50.994;7.126;2023-06-22T05:21:38;100739.00;;;27.00
9119;BMP180;4594;50.994;7.126;2023-06-22T05:24:04;100731.00;;;27.10
9119;BMP180;4594;50.994;7.126;2023-06-22T05:26:32;100745.00;;;27.10
9119;BMP180;4594;50.994;7.126;2023-06-22T05:28:59;100730.00;;;27.20
9119;BMP180;4594;50.994;7.126;2023-06-22T05:31:26;100736.00;;;27.30
9119;BMP180;4594;50.994;7.126;2023-06-22T05:33:53;100747.00;;;27.30
9119;BMP180;4594;50.994;7.126;2023-06-22T05:36:21;100732.00;;;27.40
9119;BMP180;4594;50.994;7.126;2023-06-22T05:38:51;100728.00;;;27.50
9119;BMP180;4594;50.994;7.126;2023-06-22T05:41:17;100725.00;;;27.60
9119;BMP180;4594;50.994;7.126;2023-06-22T05:43:43;100737.00;;;27.70
9119;BMP180;4594;50.994;7.126;2023-06-22T05:46:08;100741.00;;;27.80
9119;BMP180;4594;50.994;7.126;2023-06-22T05:48:34;100717.00;;;28.00
9119;BMP180;4594;50.994;7.126;2023-06-22T05:51:00;100729.00;;;28.10
9119;BMP180;4594;50.994;7.126;2023-06-22T05:53:25;100740.00;;;28.20
9119;BMP180;4594;50.994;7.126;2023-06-22T05:55:51;100753.00;;;28.30
9119;BMP180;4594;50.994;7.126;2023-06-22T05:58:17;100748.00;;;28.40
9119;BMP180;4594;50.994;7.126;2023-06-22T06:00:43;100737.00;;;28.50
9119;BMP180;4594;50.994;7.126;2023-06-22T06:03:10;100756.00;;;28.60
9119;BMP180;4594;50.994;7.126;2023-06-22T06:05:36;100756.00;;;28.90
9119;BMP180;4594;50.994;7.126;2023-06-22T06:08:05;100738.00;;;29.40
9119;BMP180;4594;50.994;7.126;2023-06-22T06:10:33;100758.00;;;29.90
9119;BMP180;4594;50.994;7.126;2023-06-22T06:12:59;100758.00;;;30.40
9119;BMP180;4594;50.994;7.126;2023-06-22T06:15:27;100759.00;;;31.00
9119;BMP180;4594;50.994;7.126;2023-06-22T06:17:53;100754.00;;;31.50
9119;BMP180;4594;50.994;7.126;2023-06-22T06:20:22;100767.00;;;32.00
9119;BMP180;4594;50.994;7.126;2023-06-22T06:22:49;100753.00;;;32.30
9119;BMP180;4594;50.994;7.126;2023-06-22T06:25:15;100759.00;;;32.80
9119;BMP180;4594;50.994;7.126;2023-06-22T06:27:45;100759.00;;;33.30
9119;BMP180;4594;50.994;7.126;2023-06-22T06:30:12;100750.00;;;33.80
9119;BMP180;4594;50.994;7.126;2023-06-22T06:32:39;100762.00;;;34.10
9119;BMP180;4594;50.994;7.126;2023-06-22T06:35:09;100771.00;;;34.20
9119;BMP180;4594;50.994;7.126;2023-06-22T06:37:38;100765.00;;;34.20
9119;BMP180;4594;50.994;7.126;2023-06-22T06:40:07;100758.00;;;34.40
9119;BMP180;4594;50.994;7.126;2023-06-22T06:42:42;100756.00;;;35.00
9119;BMP180;4594;50.994;7.126;2023-06-22T06:45:19;100768.00;;;35.50
9119;BMP180;4594;50.994;7.126;2023-06-22T06:47:46;100769.00;;;35.60
9119;BMP180;4594;50.994;7.126;2023-06-22T06:50:12;100765.00;;;35.70
9119;BMP180;4594;50.994;7.126;2023-06-22T06:52:38;100767.00;;;35.80
9119;BMP180;4594;50.994;7.126;2023-06-22T06:55:04;100767.00;;;36.10
9119;BMP180;4594;50.994;7.126;2023-06-22T06:57:34;100754.00;;;36.30
9119;BMP180;4594;50.994;7.126;2023-06-22T07:00:00;100747.00;;;36.30
9119;BMP180;4594;50.994;7.126;2023-06-22T07:02:26;100749.00;;;36.30
9119;BMP180;4594;50.994;7.126;2023-06-22T07:04:55;100754.00;;;36.20
9119;BMP180;4594;50.994;7.126;2023-06-22T07:07:21;100740.00;;;36.00
9119;BMP180;4594;50.994;7.126;2023-06-22T07:09:47;100740.00;;;35.90
9119;BMP180;4594;50.994;7.126;2023-06-22T07:12:12;100737.00;;;35.80
9119;BMP180;4594;50.994;7.126;2023-06-22T07:14:38;100734.00;;;35.80
9119;BMP180;4594;50.994;7.126;2023-06-22T07:17:04;100711.00;;;36.00
9119;BMP180;4594;50.994;7.126;2023-06-22T07:19:30;100728.00;;;36.50
9119;BMP180;4594;50.994;7.126;2023-06-22T07:21:57;100723.00;;;37.10
9119;BMP180;4594;50.994;7.126;2023-06-22T07:24:24;100694.00;;;37.60
9119;BMP180;4594;50.994;7.126;2023-06-22T07:26:51;100721.00;;;38.10
9119;BMP180;4594;50.994;7.126;2023-06-22T07:29:18;100730.00;;;38.40
9119;BMP180;4594;50.994;7.126;2023-06-22T07:31:44;100709.00;;;38.40
9119;BMP180;4594;50.994;7.126;2023-06-22T07:34:10;100728.00;;;38.40
9119;BMP180;4594;50.994;7.126;2023-06-22T07:36:36;100721.00;;;38.80
9119;BMP180;4594;50.994;7.126;2023-06-22T07:39:03;100695.00;;;39.30
9119;BMP180;4594;50.994;7.126;2023-06-22T07:41:29;100715.00;;;39.60
9119;BMP180;4594;50.994;7.126;2023-06-22T07:43:55;100710.00;;;39.80
9119;BMP180;4594;50.994;7.126;2023-06-22T07:46:21;100696.00;;;40.00
9119;BMP180;4594;50.994;7.126;2023-06-22T07:48:47;100696.00;;;40.00
9119;BMP180;4594;50.994;7.126;2023-06-22T07:51:13;100692.00;;;39.80
9119;BMP180;4594;50.994;7.126;2023-06-22T07:53:44;100704.00;;;39.70
9119;BMP180;4594;50.994;7.126;2023-06-22T07:56:14;100698.00;;;39.70
9119;BMP180;4594;50.994;7.126;2023-06-22T07:58:45;100693.00;;;39.70
9119;BMP180;4594;50.994;7.126;2023-06-22T08:01:12;100671.00;;;40.00
9119;BMP180;4594;50.994;7.126;2023-06-22T08:03:38;100657.00;;;40.40
9119;BMP180;4594;50.994;7.126;2023-06-22T08:06:05;100650.00;;;40.80
9119;BMP180;4594;50.994;7.126;2023-06-22T08:08:31;100660.00;;;41.30
9119;BMP180;4594;50.994;7.126;2023-06-22T08:10:57;100655.00;;;41.70
9119;BMP180;4594;50.994;7.126;2023-06-22T08:13:23;100663.00;;;42.30
9119;BMP180;4594;50.994;7.126;2023-06-22T08:15:49;100667.00;;;42.60
9119;BMP180;4594;50.994;7.126;2023-06-22T08:18:15;100655.00;;;43.10
9119;BMP180;4594;50.994;7.126;2023-06-22T08:20:42;100653.00;;;43.30
9119;BMP180;4594;50.994;7.126;2023-06-22T08:23:07;100657.00;;;43.30
9119;BMP180;4594;50.994;7.126;2023-06-22T08:25:34;100652.00;;;43.30
9119;BMP180;4594;50.994;7.126;2023-06-22T08:28:02;100646.00;;;43.20
9119;BMP180;4594;50.994;7.126;2023-06-22T08:30:28;100644.00;;;43.30
9119;BMP180;4594;50.994;7.126;2023-06-22T08:32:53;100643.00;;;43.50
9119;BMP180;4594;50.994;7.126;2023-06-22T08:35:22;100637.00;;;43.80
9119;BMP180;4594;50.994;7.126;2023-06-22T08:37:47;100620.00;;;44.00
9119;BMP180;4594;50.994;7.126;2023-06-22T08:40:19;100618.00;;;44.40
9119;BMP180;4594;50.994;7.126;2023-06-22T08:42:46;100634.00;;;44.90
9119;BMP180;4594;50.994;7.126;2023-06-22T08:45:12;100609.00;;;45.10
9119;BMP180;4594;50.994;7.126;2023-06-22T08:47:40;100622.00;;;45.40
9119;BMP180;4594;50.994;7.126;2023-06-22T08:50:10;100629.00;;;45.60
9119;BMP180;4594;50.994;7.126;2023-06-22T08:52:37;100623.00;;;45.70
9119;BMP180;4594;50.994;7.126;2023-06-22T08:55:05;100624.00;;;45.40
9119;BMP180;4594;50.994;7.126;2023-06-22T08:57:31;100624.00;;;45.20
9119;BMP180;4594;50.994;7.126;2023-06-22T08:59:58;100623.00;;;44.80
9119;BMP180;4594;50.994;7.126;2023-06-22T09:02:28;100606.00;;;44.40
9119;BMP180;4594;50.994;7.126;2023-06-22T09:04:59;100614.00;;;44.00
9119;BMP180;4594;50.994;7.126;2023-06-22T09:07:25;100606.00;;;43.50
9119;BMP180;4594;50.994;7.126;2023-06-22T09:09:51;100607.00;;;43.10
9119;BMP180;4594;50.994;7.126;2023-06-22T09:12:19;100605.00;;;42.70
9119;BMP180;4594;50.994;7.126;2023-06-22T09:14:46;100595.00;;;42.30
9119;BMP180;4594;50.994;7.126;2023-06-22T09:17:13;100581.00;;;42.00
9119;BMP180;4594;50.994;7.126;2023-06-22T09:19:39;100573.00;;;41.70
9119;BMP180;4594;50.994;7.126;2023-06-22T09:22:05;100574.00;;;41.60
9119;BMP180;4594;50.994;7.126;2023-06-22T09:24:32;100570.00;;;41.50
9119;BMP180;4594;50.994;7.126;2023-06-22T09:26:58;100571.00;;;41.40
9119;BMP180;4594;50.994;7.126;2023-06-22T09:29:24;100557.00;;;41.20
9119;BMP180;4594;50.994;7.126;2023-06-22T09:31:50;100569.00;;;41.00
9119;BMP180;4594;50.994;7.126;2023-06-22T09:34:16;100559.00;;;40.90
9119;BMP180;4594;50.994;7.126;2023-06-22T09:36:48;100569.00;;;40.70
9119;BMP180;4594;50.994;7.126;2023-06-22T09:39:14;100539.00;;;40.50
9119;BMP180;4594;50.994;7.126;2023-06-22T09:41:40;100540.00;;;40.30
9119;BMP180;4594;50.994;7.126;2023-06-22T09:44:06;100539.00;;;40.10
9119;BMP180;4594;50.994;7.126;2023-06-22T09:46:32;100541.00;;;40.10
9119;BMP180;4594;50.994;7.126;2023-06-22T09:48:57;100541.00;;;40.00
9119;BMP180;4594;50.994;7.126;2023-06-22T09:51:23;100524.00;;;39.90
9119;BMP180;4594;50.994;7.126;2023-06-22T09:53:50;100535.00;;;39.80
9119;BMP180;4594;50.994;7.126;2023-06-22T09:56:16;100557.00;;;39.80
9119;BMP180;4594;50.994;7.126;2023-06-22T09:58:43;100557.00;;;39.60
9119;BMP180;4594;50.994;7.126;2023-06-22T10:01:09;100540.00;;;39.30
9119;BMP180;4594;50.994;7.126;2023-06-22T10:03:36;100532.00;;;39.00
9119;BMP180;4594;50.994;7.126;2023-06-22T10:06:02;100533.00;;;38.80
9119;BMP180;4594;50.994;7.126;2023-06-22T10:08:28;100535.00;;;38.50
9119;BMP180;4594;50.994;7.126;2023-06-22T10:10:54;100546.00;;;38.20
9119;BMP180;4594;50.994;7.126;2023-06-22T10:13:20;100536.00;;;38.00
9119;BMP180;4594;50.994;7.126;2023-06-22T10:15:46;100553.00;;;37.80
9119;BMP180;4594;50.994;7.126;2023-06-22T10:18:15;100551.00;;;37.70
9119;BMP180;4594;50.994;7.126;2023-06-22T10:20:42;100563.00;;;37.50
9119;BMP180;4594;50.994;7.126;2023-06-22T10:23:07;100568.00;;;37.30
9119;BMP180;4594;50.994;7.126;2023-06-22T10:25:33;100564.00;;;37.00
9119;BMP180;4594;50.994;7.126;2023-06-22T10:27:59;100588.00;;;36.70
9119;BMP180;4594;50.994;7.126;2023-06-22T10:30:25;100586.00;;;36.40
9119;BMP180;4594;50.994;7.126;2023-06-22T10:32:50;100604.00;;;36.20
9119;BMP180;4594;50.994;7.126;2023-06-22T10:35:16;100604.00;;;35.90
9119;BMP180;4594;50.994;7.126;2023-06-22T10:37:46;100612.00;;;35.40
9119;BMP180;4594;50.994;7.126;2023-06-22T10:40:16;100618.00;;;35.00
9119;BMP180;4594;50.994;7.126;2023-06-22T10:42:44;100633.00;;;34.60
9119;BMP180;4594;50.994;7.126;2023-06-22T10:45:11;100631.00;;;34.20
9119;BMP180;4594;50.994;7.126;2023-06-22T10:47:37;100643.00;;;33.90
9119;BMP180;4594;50.994;7.126;2023-06-22T10:50:04;100651.00;;;33.50
9119;BMP180;4594;50.994;7.126;2023-06-22T10:52:30;100644.00;;;33.20
9119;BMP180;4594;50.994;7.126;2023-06-22T10:54:55;100637.00;;;32.90
9119;BMP180;4594;50.994;7.126;2023-06-22T10:57:22;100655.00;;;32.70
9119;BMP180;4594;50.994;7.126;2023-06-22T10:59:48;100641.00;;;32.40
9119;BMP180;4594;50.994;7.126;2023-06-22T11:02:13;100632.00;;;32.30
9119;BMP180;4594;50.994;7.126;2023-06-22T11:04:39;100637.00;;;32.20
9119;BMP180;4594;50.994;7.126;2023-06-22T11:07:05;100637.00;;;32.00
9119;BMP180;4594;50.994;7.126;2023-06-22T11:09:31;100642.00;;;31.90
9119;BMP180;4594;50.994;7.126;2023-06-22T11:11:57;100670.00;;;31.80
9119;BMP180;4594;50.994;7.126;2023-06-22T11:14:24;100680.00;;;31.60
9119;BMP180;4594;50.994;7.126;2023-06-22T11:16:50;100696.00;;;31.50
9119;BMP180;4594;50.994;7.126;2023-06-22T11:19:16;100692.00;;;31.30
9119;BMP180;4594;50.994;7.126;2023-06-22T11:21:42;100686.00;;;31.20
9119;BMP180;4594;50.994;7.126;2023-06-22T11:24:08;100660.00;;;31.10
9119;BMP180;4594;50.994;7.126;2023-06-22T11:26:33;100641.00;;;30.90
9119;BMP180;4594;50.994;7.126;2023-06-22T11:29:00;100613.00;;;30.80
9119;BMP180;4594;50.994;7.126;2023-06-22T11:31:25;100620.00;;;30.60
9119;BMP180;4594;50.994;7.126;2023-06-22T11:33:51;100596.00;;;30.50
9119;BMP180;4594;50.994;7.126;2023-06-22T11:36:18;100566.00;;;30.40
9119;BMP180;4594;50.994;7.126;2023-06-22T11:38:47;100557.00;;;30.10
9119;BMP180;4594;50.994;7.126;2023-06-22T11:41:14;100556.00;;;29.90
9119;BMP180;4594;50.994;7.126;2023-06-22T11:43:40;100538.00;;;29.80
9119;BMP180;4594;50.994;7.126;2023-06-22T11:46:05;100518.00;;;29.70
9119;BMP180;4594;50.994;7.126;2023-06-22T11:48:31;100503.00;;;29.60
9119;BMP180;4594;50.994;7.126;2023-06-22T11:50:58;100487.00;;;29.50
9119;BMP180;4594;50.994;7.126;2023-06-22T11:53:26;100477.00;;;29.40
9119;BMP180;4594;50.994;7.126;2023-06-22T11:55:52;100487.00;;;29.40
9119;BMP180;4594;50.994;7.126;2023-06-22T11:58:19;100476.00;;;29.50
9119;BMP180;4594;50.994;7.126;2023-06-22T12:00:45;100484.00;;;29.60
9119;BMP180;4594;50.994;7.126;2023-06-22T12:03:11;100493.00;;;29.70
9119;BMP180;4594;50.994;7.126;2023-06-22T12:05:38;100477.00;;;29.90
9119;BMP180;4594;50.994;7.126;2023-06-22T12:08:04;100503.00;;;30.00
9119;BMP180;4594;50.994;7.126;2023-06-22T12:10:30;100490.00;;;30.20
9119;BMP180;4594;50.994;7.126;2023-06-22T12:12:56;100496.00;;;30.30
9119;BMP180;4594;50.994;7.126;2023-06-22T12:15:26;100496.00;;;30.50
9119;BMP180;4594;50.994;7.126;2023-06-22T12:17:52;100492.00;;;30.50
9119;BMP180;4594;50.994;7.126;2023-06-22T12:20:18;100496.00;;;30.50
9119;BMP180;4594;50.994;7.126;2023-06-22T12:22:44;100493.00;;;30.40
9119;BMP180;4594;50.994;7.126;2023-06-22T12:25:11;100470.00;;;30.40
9119;BMP180;4594;50.994;7.126;2023-06-22T12:27:37;100468.00;;;30.30
9119;BMP180;4594;50.994;7.126;2023-06-22T12:30:04;100459.00;;;30.10
9119;BMP180;4594;50.994;7.126;2023-06-22T12:32:30;100456.00;;;30.00
9119;BMP180;4594;50.994;7.126;2023-06-22T12:34:56;100459.00;;;30.00
9119;BMP180;4594;50.994;7.126;2023-06-22T12:37:23;100455.00;;;29.90
9119;BMP180;4594;50.994;7.126;2023-06-22T12:39:49;100443.00;;;29.90
9119;BMP180;4594;50.994;7.126;2023-06-22T12:42:16;100433.00;;;29.80
9119;BMP180;4594;50.994;7.126;2023-06-22T12:44:42;100411.00;;;29.80
9119;BMP180;4594;50.994;7.126;2023-06-22T12:47:08;100425.00;;;29.70
9119;BMP180;4594;50.994;7.126;2023-06-22T12:49:35;100430.00;;;29.80
9119;BMP180;4594;50.994;7.126;2023-06-22T12:52:02;100420.00;;;29.90
9119;BMP180;4594;50.994;7.126;2023-06-22T12:54:28;100388.00;;;29.90
9119;BMP180;4594;50.994;7.126;2023-06-22T12:56:55;100393.00;;;29.90
9119;BMP180;4594;50.994;7.126;2023-06-22T12:59:21;100383.00;;;29.90
9119;BMP180;4594;50.994;7.126;2023-06-22T13:01:46;100390.00;;;29.80
9119;BMP180;4594;50.994;7.126;2023-06-22T13:04:12;100401.00;;;29.70
9119;BMP180;4594;50.994;7.126;2023-06-22T13:06:41;100395.00;;;29.70
9119;BMP180;4594;50.994;7.126;2023-06-22T13:09:09;100386.00;;;29.60
9119;BMP180;4594;50.994;7.126;2023-06-22T13:11:35;100367.00;;;29.60
9119;BMP180;4594;50.994;7.126;2023-06-22T13:14:01;100353.00;;;29.70
9119;BMP180;4594;50.994;7.126;2023-06-22T13:16:26;100362.00;;;29.70
9119;BMP180;4594;50.994;7.126;2023-06-22T13:18:52;100353.00;;;29.70
9119;BMP180;4594;50.994;7.126;2023-06-22T13:21:18;100350.00;;;29.70
9119;BMP180;4594;50.994;7.126;2023-06-22T13:23:44;100346.00;;;29.70
9119;BMP180;4594;50.994;7.126;2023-06-22T13:26:10;100353.00;;;29.70
9119;BMP180;4594;50.994;7.126;2023-06-22T13:28:36;100350.00;;;29.70
9119;BMP180;4594;50.994;7.126;2023-06-22T13:31:01;100333.00;;;29.60
9119;BMP180;4594;50.994;7.126;2023-06-22T13:33:27;100330.00;;;29.60
9119;BMP180;4594;50.994;7.126;2023-06-22T13:35:53;100322.00;;;29.50
9119;BMP180;4594;50.994;7.126;2023-06-22T13:38:19;100302.00;;;29.40
9119;BMP180;4594;50.994;7.126;2023-06-22T13:40:44;100299.00;;;29.30
9119;BMP180;4594;50.994;7.126;2023-06-22T13:43:10;100287.00;;;29.30
9119;BMP180;4594;50.994;7.126;2023-06-22T13:45:36;100290.00;;;29.20
9119;BMP180;4594;50.994;7.126;2023-06-22T13:48:02;100264.00;;;29.20
9119;BMP180;4594;50.994;7.126;2023-06-22T13:50:27;100278.00;;;29.20
9119;BMP180;4594;50.994;7.126;2023-06-22T13:52:54;100276.00;;;29.20
9119;BMP180;4594;50.994;7.126;2023-06-22T13:55:20;100265.00;;;29.30
9119;BMP180;4594;50.994;7.126;2023-06-22T13:57:46;100245.00;;;29.40
9119;BMP180;4594;50.994;7.126;2023-06-22T14:00:13;100245.00;;;29.40
9119;BMP180;4594;50.994;7.126;2023-06-22T14:02:39;100224.00;;;29.40
9119;BMP180;4594;50.994;7.126;2023-06-22T14:05:08;100225.00;;;29.40
9119;BMP180;4594;50.994;7.126;2023-06-22T14:07:34;100212.00;;;29.30
9119;BMP180;4594;50.994;7.126;2023-06-22T14:10:00;100205.00;;;29.20
9119;BMP180;4594;50.994;7.126;2023-06-22T14:12:26;100200.00;;;29.20
9119;BMP180;4594;50.994;7.126;2023-06-22T14:14:52;100205.00;;;29.20
9119;BMP180;4594;50.994;7.126;2023-06-22T14:17:18;100206.00;;;29.30
9119;BMP180;4594;50.994;7.126;2023-06-22T14:19:49;100197.00;;;29.40
9119;BMP180;4594;50.994;7.126;2023-06-22T14:22:15;100196.00;;;29.50
9119;BMP180;4594;50.994;7.126;2023-06-22T14:24:41;100189.00;;;29.50